CZFM/ZFM METAR and TAF weather

Enter ICAO airport designator
Station Type Date Time Source
CZFM METAR 2019/06/26 22:00 UTC NOAA

CZFM 262200Z 00000KT 35SM SCT040 17/03 A3019 RMK CU3 SLP228


Station Type Date Time Source
CZFM Decoded METAR 2019/06/26 22:00 UTC NOAA

Fort Mcpherson Airport, Canada (CZFM) 67-24N 134-51W
Jun 26, 2019 - 06:00 PM EDT / 2019.06.26 2200 UTC
Wind: Calm:0
Visibility: 35 mile(s):0
Sky conditions: partly cloudy
Temperature: 62 F (17 C)
Dew Point: 37 F (3 C)
Relative Humidity: 39%
Pressure (altimeter): 30.19 in. Hg (1022 hPa)
ob: CZFM 262200Z 00000KT 35SM SCT040 17/03 A3019 RMK CU3 SLP228
cycle: 22

Station Type Date Time Source
CZFM TAF 2019/06/26 19:00 UTC NOAA

TAF CZFM 261838Z 2619/2623 VRB03KT P6SM SCT040
TEMPO 2619/2623 BKN040
RMK NXT FCST WILL BE ISSUED AT 271445Z

Example: see airport list